Terminal Aerodrome Forecast
Issued by NWS

Home | Current Version | Previous Version | Text Only | Print | Product List | Glossary Off
Versions: 1 2 3 4 5 6 7 8 9 10 11 12 13 14 15

000
FTUS43 KICT 241506 CCA
TAFHUT
TAF COR
KHUT 241506Z 2415/2512 31013KT P6SM SCT025
      TEMPO 2415/2418 BKN025
     FM242000 27011KT P6SM SKC
     FM250100 19007KT P6SM SCT200=

USA.gov is the U.S. government's official web portal to all federal, state and local government web resources and services.